| time (UTC) | temp F | wind direction | speed MPH | gust MPH | rain 1hr in | rain 24hr in | rain mn in | humidity % | barometer mb |
| 20260906180130 | 81 | 213 | 5.0 | 0.0 | 0.00 | 0.00 | 0.00 | 28 | 1005.0 |
| 20260906174614 | 81 | 165 | 6.0 | 0.0 | 0.00 | 0.00 | 0.00 | 28 | 1005.2 |
| 20260906173028 | 81 | 227 | 4.0 | 0.0 | 0.00 | 0.00 | 0.00 | 28 | 1005.6 |
| 20260906171616 | 80 | 214 | 3.0 | 0.0 | 0.00 | 0.00 | 0.00 | 29 | 1005.6 |
| 20260906170117 | 80 | 237 | 4.0 | 0.0 | 0.00 | 0.00 | 0.00 | 29 | 1005.7 |
| 20260906164629 | 80 | 209 | 5.0 | 0.0 | 0.00 | 0.00 | 0.00 | 29 | 1005.7 |
| 20260906163114 | 79 | 204 | 4.0 | 0.0 | 0.00 | 0.00 | 0.00 | 31 | 1005.7 |
| 20260906161555 | 78 | 193 | 7.0 | 0.0 | 0.00 | 0.00 | 0.00 | 31 | 1006.0 |
| 20260906160045 | 78 | 211 | 5.0 | 0.0 | 0.00 | 0.00 | 0.00 | 32 | 1006.2 |
| 20260906154615 | 76 | 182 | 4.0 | 0.0 | 0.00 | 0.00 | 0.00 | 35 | 1006.4 |
| 20260906153055 | 73 | 227 | 2.0 | 0.0 | 0.00 | 0.00 | 0.00 | 39 | 1006.4 |
| 20260906151559 | 67 | 202 | 1.0 | 0.0 | 0.00 | 0.00 | 0.00 | 50 | 1006.4 |
| 20260906150037 | 63 | 278 | 0.0 | 0.0 | 0.00 | 0.00 | 0.00 | 57 | 1006.7 |
| 20260906144621 | 62 | 277 | 0.0 | 0.0 | 0.00 | 0.00 | 0.00 | 55 | 1006.6 |
| 20260906143123 | 62 | 278 | 0.0 | 0.0 | 0.00 | 0.00 | 0.00 | 55 | 1006.7 |
| 20260906141618 | 63 | 277 | 0.0 | 0.0 | 0.00 | 0.00 | 0.00 | 53 | 1006.1 |
| 20260906140105 | 64 | 278 | 0.0 | 0.0 | 0.00 | 0.00 | 0.00 | 48 | 1006.2 |
| 20260906134536 | 65 | 277 | 1.0 | 0.0 | 0.00 | 0.00 | 0.00 | 44 | 1006.1 |
| 20260906133034 | 65 | 278 | 1.0 | 0.0 | 0.00 | 0.00 | 0.00 | 44 | 1006.1 |
| 20260906131511 | 67 | 204 | 0.0 | 0.0 | 0.00 | 0.00 | 0.00 | 42 | 1005.9 |
| 20260906130116 | 69 | 205 | 0.0 | 0.0 | 0.00 | 0.00 | 0.00 | 38 | 1005.8 |
| 20260906124559 | 73 | 202 | 1.0 | 0.0 | 0.00 | 0.00 | 0.00 | 34 | 1005.7 |
| 20260906123140 | 73 | 187 | 1.0 | 0.0 | 0.00 | 0.00 | 0.00 | 32 | 1005.7 |
| 20260906121610 | 74 | 196 | 1.0 | 0.0 | 0.00 | 0.00 | 0.00 | 31 | 1005.6 |
| 20260906120053 | 74 | 226 | 2.0 | 0.0 | 0.00 | 0.00 | 0.00 | 31 | 1005.6 |
| 20260906114618 | 74 | 222 | 3.0 | 0.0 | 0.00 | 0.00 | 0.00 | 30 | 1005.7 |
| 20260906113054 | 75 | 180 | 2.0 | 0.0 | 0.00 | 0.00 | 0.00 | 29 | 1005.7 |
| 20260906111510 | 75 | 221 | 2.0 | 0.0 | 0.00 | 0.00 | 0.00 | 28 | 1005.7 |
| 20260906110106 | 76 | 211 | 3.0 | 0.0 | 0.00 | 0.00 | 0.00 | 27 | 1005.8 |
| 20260906104533 | 76 | 196 | 3.0 | 0.0 | 0.00 | 0.00 | 0.00 | 27 | 1005.7 |
| 20260906103126 | 76 | 211 | 2.0 | 0.0 | 0.00 | 0.00 | 0.00 | 26 | 1005.7 |
| 20260906101609 | 77 | 201 | 4.0 | 0.0 | 0.00 | 0.00 | 0.00 | 25 | 1005.6 |
| 20260906100044 | 77 | 211 | 5.0 | 0.0 | 0.00 | 0.00 | 0.00 | 24 | 1005.4 |
| 20260906094619 | 77 | 205 | 3.0 | 0.0 | 0.00 | 0.00 | 0.00 | 24 | 1005.4 |
| 20260906093105 | 77 | 211 | 6.0 | 0.0 | 0.00 | 0.00 | 0.00 | 23 | 1005.3 |
| 20260906091558 | 77 | 208 | 4.0 | 0.0 | 0.00 | 0.00 | 0.00 | 23 | 1005.2 |
| 20260906090118 | 76 | 201 | 4.0 | 0.0 | 0.00 | 0.00 | 0.00 | 23 | 1005.2 |
| 20260906084606 | 77 | 186 | 4.0 | 0.0 | 0.00 | 0.00 | 0.00 | 23 | 1005.2 |
| 20260906083050 | 77 | 206 | 4.0 | 0.0 | 0.00 | 0.00 | 0.00 | 23 | 1005.0 |
| 20260906081625 | 76 | 196 | 2.0 | 0.0 | 0.00 | 0.00 | 0.00 | 23 | 1005.0 |
| 20260906080116 | 76 | 254 | 3.0 | 0.0 | 0.00 | 0.00 | 0.00 | 23 | 1005.2 |
| 20260906074556 | 76 | 175 | 2.0 | 0.0 | 0.00 | 0.00 | 0.00 | 24 | 1005.0 |
| 20260906073043 | 77 | 192 | 2.0 | 0.0 | 0.00 | 0.00 | 0.00 | 24 | 1004.8 |
| 20260906071504 | 78 | 217 | 4.0 | 0.0 | 0.00 | 0.00 | 0.00 | 24 | 1004.8 |
| 20260906070106 | 78 | 196 | 2.0 | 0.0 | 0.00 | 0.00 | 0.00 | 24 | 1005.0 |
| 20260906064556 | 78 | 211 | 3.0 | 0.0 | 0.00 | 0.00 | 0.00 | 24 | 1005.0 |
| 20260906063028 | 79 | 187 | 4.0 | 0.0 | 0.00 | 0.00 | 0.00 | 23 | 1004.7 |
| 20260906061613 | 80 | 191 | 5.0 | 0.0 | 0.00 | 0.00 | 0.00 | 22 | 1004.6 |
| 20260906060021 | 80 | 235 | 4.0 | 0.0 | 0.00 | 0.00 | 0.00 | 21 | 1004.6 |
| 20260906054612 | 80 | 228 | 5.0 | 0.0 | 0.00 | 0.00 | 0.00 | 20 | 1004.6 |
| 20260906053107 | 80 | 184 | 5.0 | 0.0 | 0.00 | 0.00 | 0.00 | 20 | 1004.6 |
| 20260906051527 | 79 | 198 | 3.0 | 0.0 | 0.00 | 0.00 | 0.00 | 21 | 1004.6 |
| 20260906050016 | 78 | 207 | 3.0 | 0.0 | 0.00 | 0.00 | 0.00 | 21 | 1004.6 |
| 20260906044615 | 78 | 227 | 2.0 | 0.0 | 0.00 | 0.00 | 0.00 | 21 | 1004.6 |
| 20260906043108 | 79 | 222 | 3.0 | 0.0 | 0.00 | 0.00 | 0.00 | 20 | 1004.6 |
| 20260906041603 | 79 | 152 | 4.0 | 0.0 | 0.00 | 0.00 | 0.00 | 20 | 1004.6 |
| 20260906040042 | 77 | 199 | 1.0 | 0.0 | 0.00 | 0.00 | 0.00 | 22 | 1004.5 |
| 20260906034510 | 78 | 237 | 1.0 | 0.0 | 0.00 | 0.00 | 0.00 | 22 | 1004.3 |
| 20260906033116 | 77 | 199 | 1.0 | 0.0 | 0.00 | 0.00 | 0.00 | 23 | 1004.4 |
| 20260906031536 | 78 | 203 | 1.0 | 0.0 | 0.00 | 0.00 | 0.00 | 23 | 1004.2 |
| 20260906030022 | 78 | 202 | 0.0 | 0.0 | 0.00 | 0.00 | 0.00 | 22 | 1004.0 |
| 20260906024517 | 78 | 203 | 1.0 | 0.0 | 0.00 | 0.00 | 0.00 | 23 | 1003.8 |
| 20260906023015 | 77 | 207 | 1.0 | 0.0 | 0.00 | 0.00 | 0.00 | 24 | 1003.6 |
| 20260906021619 | 77 | 196 | 0.0 | 0.0 | 0.00 | 0.00 | 0.00 | 25 | 1003.4 |
| 20260906020109 | 80 | 196 | 0.0 | 0.0 | 0.00 | 0.00 | 0.00 | 24 | 1003.2 |
| 20260906014529 | 82 | 196 | 1.0 | 0.0 | 0.00 | 0.00 | 0.00 | 21 | 1003.0 |
| 20260906013127 | 83 | 190 | 1.0 | 0.0 | 0.00 | 0.00 | 0.00 | 21 | 1002.9 |
| 20260906011605 | 84 | 187 | 1.0 | 0.0 | 0.00 | 0.00 | 0.00 | 20 | 1003.1 |
| 20260906010028 | 85 | 219 | 2.0 | 0.0 | 0.00 | 0.00 | 0.00 | 19 | 1003.3 |
| 20260906004621 | 85 | 186 | 2.0 | 0.0 | 0.00 | 0.00 | 0.00 | 19 | 1003.4 |
| 20260906003104 | 86 | 174 | 3.0 | 0.0 | 0.00 | 0.00 | 0.00 | 19 | 1003.5 |
| 20260906001546 | 86 | 197 | 4.0 | 0.0 | 0.00 | 0.00 | 0.00 | 17 | 1003.5 |
| 20260906000120 | 86 | 205 | 2.0 | 0.0 | 0.00 | 0.00 | 0.00 | 18 | 1003.5 |
| 20260905234621 | 87 | 215 | 4.0 | 0.0 | 0.00 | 0.00 | 0.00 | 17 | 1003.7 |
| 20260905233058 | 87 | 215 | 4.0 | 0.0 | 0.00 | 0.00 | 0.00 | 16 | 1003.7 |
| 20260905231528 | 88 | 236 | 4.0 | 0.0 | 0.00 | 0.00 | 0.00 | 18 | 1003.7 |
| 20260905230113 | 87 | 206 | 5.0 | 0.0 | 0.00 | 0.00 | 0.00 | 17 | 1004.0 |
| 20260905224610 | 87 | 217 | 6.0 | 0.0 | 0.00 | 0.00 | 0.00 | 16 | 1004.1 |
| 20260905223036 | 87 | 195 | 5.0 | 0.0 | 0.00 | 0.00 | 0.00 | 16 | 1004.2 |
| 20260905221530 | 88 | 205 | 5.0 | 0.0 | 0.00 | 0.00 | 0.00 | 18 | 1004.2 |
| 20260905220113 | 88 | 199 | 4.0 | 0.0 | 0.00 | 0.00 | 0.00 | 18 | 1004.2 |
| 20260905214540 | 87 | 123 | 5.0 | 0.0 | 0.00 | 0.00 | 0.00 | 18 | 1004.4 |
| 20260905213050 | 86 | 217 | 5.0 | 0.0 | 0.00 | 0.00 | 0.00 | 18 | 1004.5 |
| 20260905211553 | 86 | 221 | 5.0 | 0.0 | 0.00 | 0.00 | 0.00 | 20 | 1004.8 |
| 20260905210033 | 86 | 223 | 6.0 | 0.0 | 0.00 | 0.00 | 0.00 | 19 | 1004.9 |
| 20260905204618 | 85 | 199 | 5.0 | 0.0 | 0.00 | 0.00 | 0.00 | 19 | 1005.0 |
| 20260905203114 | 84 | 173 | 7.0 | 0.0 | 0.00 | 0.00 | 0.00 | 20 | 1005.2 |
| 20260905201551 | 84 | 221 | 6.0 | 0.0 | 0.00 | 0.00 | 0.00 | 20 | 1005.5 |
| 20260905200117 | 83 | 195 | 7.0 | 0.0 | 0.00 | 0.00 | 0.00 | 21 | 1005.5 |
| 20260905194543 | 83 | 214 | 7.0 | 0.0 | 0.00 | 0.00 | 0.00 | 20 | 1005.6 |
| 20260905193129 | 83 | 211 | 7.0 | 0.0 | 0.00 | 0.00 | 0.00 | 21 | 1005.6 |
| 20260905191608 | 82 | 195 | 6.0 | 0.0 | 0.00 | 0.00 | 0.00 | 21 | 1006.1 |
| 20260905190029 | 82 | 190 | 7.0 | 0.0 | 0.00 | 0.00 | 0.00 | 22 | 1006.3 |
| 20260905184625 | 81 | 263 | 5.0 | 0.0 | 0.00 | 0.00 | 0.00 | 22 | 1006.3 |
| 20260905183109 | 80 | 213 | 7.0 | 0.0 | 0.00 | 0.00 | 0.00 | 23 | 1006.5 |
| 20260905181555 | 80 | 205 | 5.0 | 0.0 | 0.00 | 0.00 | 0.00 | 24 | 1006.6 |